createdAt,value
2019-06-07T00:00:56.348Z,15.00
2019-06-07T00:01:56.312Z,15.02
2019-06-07T00:02:56.299Z,15.00
2019-06-07T00:03:56.282Z,15.00
2019-06-07T00:04:56.291Z,15.02
2019-06-07T00:05:56.333Z,15.00
2019-06-07T00:06:56.246Z,14.99
2019-06-07T00:08:07.016Z,14.97
2019-06-07T00:08:56.268Z,14.97
2019-06-07T00:09:56.197Z,14.96
2019-06-07T00:10:56.188Z,14.99
2019-06-07T00:11:56.203Z,14.99
2019-06-07T00:12:56.169Z,15.02
2019-06-07T00:13:56.146Z,15.04
2019-06-07T00:14:56.200Z,15.05
2019-06-07T00:15:56.168Z,15.04
2019-06-07T00:16:56.169Z,15.05
2019-06-07T00:17:56.096Z,15.05
2019-06-07T00:18:56.083Z,15.04
2019-06-07T00:19:56.068Z,15.05
2019-06-07T00:20:56.734Z,15.05
2019-06-07T00:22:56.071Z,15.02
2019-06-07T00:23:56.017Z,15.02
2019-06-07T00:24:56.040Z,15.04
2019-06-07T00:25:55.990Z,15.02
2019-06-07T00:26:59.025Z,15.02
2019-06-07T00:27:55.993Z,15.04
2019-06-07T00:28:55.951Z,15.05
2019-06-07T00:29:55.968Z,15.05
2019-06-07T00:30:55.926Z,15.05
2019-06-07T00:31:55.912Z,15.05
2019-06-07T00:32:55.905Z,15.05
2019-06-07T00:33:56.337Z,15.05
2019-06-07T00:34:55.908Z,15.05
2019-06-07T00:35:55.867Z,15.05
2019-06-07T00:36:56.022Z,15.05
2019-06-07T00:37:55.831Z,15.05
2019-06-07T00:38:55.817Z,15.04
2019-06-07T00:40:13.439Z,15.02
2019-06-07T00:40:55.795Z,15.00
2019-06-07T00:41:55.782Z,14.96
2019-06-07T00:42:55.792Z,14.94
2019-06-07T00:43:55.760Z,14.92
2019-06-07T00:44:55.745Z,14.82
2019-06-07T00:45:55.772Z,14.71
2019-06-07T00:46:55.715Z,14.67
2019-06-07T00:47:55.740Z,14.66
2019-06-07T00:48:55.696Z,14.66
2019-06-07T00:49:55.675Z,14.67
2019-06-07T00:50:55.697Z,14.67
2019-06-07T00:51:56.356Z,14.68
2019-06-07T00:53:14.525Z,14.70
2019-06-07T00:53:55.631Z,14.71
2019-06-07T00:54:55.641Z,14.73
2019-06-07T00:55:55.584Z,14.73
2019-06-07T00:56:55.579Z,14.78
2019-06-07T00:57:55.564Z,14.78
2019-06-07T00:59:10.759Z,14.77
2019-06-07T00:59:55.575Z,14.73
2019-06-07T01:00:55.543Z,14.70
2019-06-07T01:01:55.520Z,14.68
2019-06-07T01:02:55.530Z,14.68
2019-06-07T01:03:55.490Z,14.66
2019-06-07T01:04:55.529Z,14.56
2019-06-07T01:05:55.462Z,14.53
2019-06-07T01:06:55.444Z,14.52
2019-06-07T01:07:55.440Z,14.52
2019-06-07T01:08:55.551Z,14.52
2019-06-07T01:09:55.407Z,14.55
2019-06-07T01:10:55.398Z,14.55
2019-06-07T01:11:55.424Z,14.55
2019-06-07T01:12:55.365Z,14.56
2019-06-07T01:13:55.394Z,14.58
2019-06-07T01:14:55.376Z,14.59
2019-06-07T01:15:55.328Z,14.61
2019-06-07T01:17:05.519Z,14.61
2019-06-07T01:18:55.289Z,14.59
2019-06-07T01:19:55.344Z,14.58
2019-06-07T01:20:55.259Z,14.55
2019-06-07T01:21:55.243Z,14.55
2019-06-07T01:22:55.229Z,14.55
2019-06-07T01:24:10.623Z,14.56
2019-06-07T01:24:55.199Z,14.56
2019-06-07T01:25:55.355Z,14.59
2019-06-07T01:26:55.173Z,14.61
2019-06-07T01:27:55.160Z,14.61
2019-06-07T01:28:55.198Z,14.61
2019-06-07T01:29:55.134Z,14.61
2019-06-07T01:30:55.118Z,14.61
2019-06-07T01:31:55.116Z,14.59
2019-06-07T01:32:55.102Z,14.55
2019-06-07T01:33:55.087Z,14.52
2019-06-07T01:34:55.077Z,14.52
2019-06-07T01:35:55.056Z,14.55
2019-06-07T01:36:55.077Z,14.56
2019-06-07T01:37:55.036Z,14.58
2019-06-07T01:38:55.012Z,14.61
2019-06-07T01:39:54.996Z,14.61
2019-06-07T01:40:54.987Z,14.58
2019-06-07T01:41:54.991Z,14.55
2019-06-07T01:42:55.018Z,14.53
2019-06-07T01:43:54.952Z,14.53
2019-06-07T01:44:54.941Z,14.55
2019-06-07T01:45:54.920Z,14.55
2019-06-07T01:46:54.909Z,14.55
2019-06-07T01:47:54.960Z,14.53
2019-06-07T01:48:54.911Z,14.53
2019-06-07T01:49:54.865Z,14.51
2019-06-07T01:50:54.857Z,14.51
2019-06-07T01:51:54.844Z,14.48
2019-06-07T01:52:54.856Z,14.48
2019-06-07T01:54:41.274Z,14.43
2019-06-07T01:54:58.417Z,14.43
2019-06-07T01:55:54.793Z,14.37
2019-06-07T01:57:01.487Z,14.38
2019-06-07T01:57:54.807Z,14.41
2019-06-07T01:58:54.785Z,14.40
2019-06-07T01:59:54.740Z,14.40
2019-06-07T02:00:54.724Z,14.40
2019-06-07T02:01:54.712Z,14.38
2019-06-07T02:02:54.708Z,14.37
2019-06-07T02:03:54.716Z,14.34
2019-06-07T02:04:54.667Z,14.36
2019-06-07T02:05:54.686Z,14.36
2019-06-07T02:06:54.646Z,14.36
2019-06-07T02:07:54.629Z,14.37
2019-06-07T02:08:54.613Z,14.38
2019-06-07T02:09:54.631Z,14.40
2019-06-07T02:10:54.586Z,14.41
2019-06-07T02:11:54.576Z,14.44
2019-06-07T02:12:54.596Z,14.45
2019-06-07T02:13:54.545Z,14.45
2019-06-07T02:14:54.548Z,14.45
2019-06-07T02:15:54.547Z,14.45
2019-06-07T02:16:54.510Z,14.45
2019-06-07T02:17:54.525Z,14.40
2019-06-07T02:19:01.731Z,14.40
2019-06-07T02:19:54.460Z,14.37
2019-06-07T02:20:54.453Z,14.34
2019-06-07T02:21:54.439Z,14.30
2019-06-07T02:22:54.453Z,14.22
2019-06-07T02:23:54.410Z,14.20
2019-06-07T02:25:34.726Z,14.15
2019-06-07T02:25:54.399Z,14.11
2019-06-07T02:26:54.373Z,14.12
2019-06-07T02:28:10.992Z,14.12
2019-06-07T02:28:54.334Z,14.15
2019-06-07T02:29:54.367Z,14.15
2019-06-07T02:31:00.169Z,14.16
2019-06-07T02:31:54.315Z,14.16
2019-06-07T02:32:54.289Z,14.19
2019-06-07T02:33:54.321Z,14.19
2019-06-07T02:34:54.304Z,14.12
2019-06-07T02:35:54.252Z,14.12
2019-06-07T02:36:54.238Z,14.12
2019-06-07T02:37:54.229Z,14.13
2019-06-07T02:38:54.216Z,14.13
2019-06-07T02:39:54.208Z,14.12
2019-06-07T02:40:54.213Z,14.16
2019-06-07T02:41:54.170Z,14.16
2019-06-07T02:42:54.150Z,14.18
2019-06-07T02:43:54.150Z,14.19
2019-06-07T02:44:54.125Z,14.19
2019-06-07T02:45:54.248Z,14.19
2019-06-07T02:46:54.105Z,14.18
2019-06-07T02:47:54.081Z,14.16
2019-06-07T02:48:54.125Z,14.13
2019-06-07T02:49:54.069Z,14.11
2019-06-07T02:50:54.040Z,14.11
2019-06-07T02:51:54.050Z,14.08
2019-06-07T02:52:54.015Z,14.12
2019-06-07T02:53:54.000Z,14.12
2019-06-07T02:54:53.988Z,14.12
2019-06-07T02:56:58.831Z,14.16
2019-06-07T02:57:53.947Z,14.18
2019-06-07T02:58:53.950Z,14.20
2019-06-07T03:00:07.537Z,14.22
2019-06-07T03:01:06.730Z,14.23
2019-06-07T03:01:53.914Z,14.25
2019-06-07T03:02:53.939Z,14.25
2019-06-07T03:03:53.928Z,14.26
2019-06-07T03:04:53.855Z,14.26
2019-06-07T03:05:53.843Z,14.25
2019-06-07T03:06:53.817Z,14.19
2019-06-07T03:07:53.817Z,14.16
2019-06-07T03:08:53.794Z,14.18
2019-06-07T03:09:53.789Z,14.18
2019-06-07T03:10:53.790Z,14.18
2019-06-07T03:11:53.760Z,14.19
2019-06-07T03:12:53.741Z,14.20
2019-06-07T03:13:53.795Z,14.23
2019-06-07T03:14:53.712Z,14.23
2019-06-07T03:15:53.706Z,14.23
2019-06-07T03:16:53.689Z,14.23
2019-06-07T03:17:53.683Z,14.20
2019-06-07T03:18:53.659Z,14.20
2019-06-07T03:19:53.674Z,14.19
2019-06-07T03:21:04.925Z,14.20
2019-06-07T03:21:53.615Z,14.22
2019-06-07T03:22:53.613Z,14.22
2019-06-07T03:23:53.620Z,14.22
2019-06-07T03:24:53.580Z,14.22
2019-06-07T03:25:53.567Z,14.22
2019-06-07T03:27:53.536Z,14.20
2019-06-07T03:28:53.551Z,14.20
2019-06-07T03:29:53.537Z,14.19
2019-06-07T03:31:02.400Z,14.19
2019-06-07T03:31:53.484Z,14.20
2019-06-07T03:32:53.467Z,14.22
2019-06-07T03:33:54.422Z,14.22
2019-06-07T03:34:53.487Z,14.23
2019-06-07T03:35:53.466Z,14.22
2019-06-07T03:36:53.431Z,14.23
2019-06-07T03:37:53.407Z,14.22
2019-06-07T03:38:53.407Z,14.19
2019-06-07T03:39:53.416Z,14.18
2019-06-07T03:40:53.401Z,14.13
2019-06-07T03:42:05.888Z,14.11
2019-06-07T03:42:53.335Z,14.05
2019-06-07T03:43:53.334Z,14.01
2019-06-07T03:44:53.434Z,14.01
2019-06-07T03:45:53.573Z,13.97
2019-06-07T03:46:53.310Z,13.97
2019-06-07T03:47:53.271Z,13.94
2019-06-07T03:48:53.285Z,13.94
2019-06-07T03:49:53.250Z,13.94
2019-06-07T03:51:04.085Z,13.93
2019-06-07T03:51:53.217Z,13.94
2019-06-07T03:52:53.186Z,13.95
2019-06-07T03:53:53.181Z,13.95
2019-06-07T03:54:53.201Z,13.97
2019-06-07T03:55:53.146Z,13.97
2019-06-07T03:56:53.168Z,13.98
2019-06-07T03:58:53.132Z,14.00
2019-06-07T03:59:53.101Z,14.01
2019-06-07T04:00:53.100Z,14.01
2019-06-07T04:01:53.087Z,14.01
2019-06-07T04:02:53.059Z,14.04
2019-06-07T04:03:53.035Z,14.04
2019-06-07T04:04:53.028Z,14.05
2019-06-07T04:05:53.008Z,14.05
2019-06-07T04:06:53.031Z,14.07
2019-06-07T04:07:52.985Z,14.08
2019-06-07T04:08:52.976Z,14.08
2019-06-07T04:09:52.961Z,14.11
2019-06-07T04:10:59.601Z,14.11
2019-06-07T04:11:52.941Z,14.11
2019-06-07T04:12:52.929Z,14.12
2019-06-07T04:13:52.966Z,14.12
2019-06-07T04:14:52.886Z,14.11
2019-06-07T04:15:52.927Z,14.11
2019-06-07T04:16:52.856Z,14.11
2019-06-07T04:18:01.847Z,14.08
2019-06-07T04:18:53.008Z,14.04
2019-06-07T04:19:52.805Z,14.03
2019-06-07T04:20:52.841Z,14.03
2019-06-07T04:21:52.784Z,14.04
2019-06-07T04:22:52.773Z,14.04
2019-06-07T04:23:52.752Z,14.05
2019-06-07T04:24:52.745Z,14.07
2019-06-07T04:25:52.734Z,14.05
2019-06-07T04:26:52.718Z,14.01
2019-06-07T04:27:52.697Z,13.97
2019-06-07T04:29:31.611Z,13.93
2019-06-07T04:30:06.862Z,13.87
2019-06-07T04:30:52.686Z,13.86
2019-06-07T04:31:52.680Z,13.85
2019-06-07T04:32:52.631Z,13.82
2019-06-07T04:33:52.613Z,13.79
2019-06-07T04:34:52.601Z,13.80
2019-06-07T04:35:52.618Z,13.80
2019-06-07T04:36:59.070Z,13.82
2019-06-07T04:37:52.556Z,13.86
2019-06-07T04:38:52.544Z,13.91
2019-06-07T04:39:53.804Z,13.94
2019-06-07T04:40:52.513Z,13.97
2019-06-07T04:41:52.510Z,14.01
2019-06-07T04:42:52.504Z,14.04
2019-06-07T04:43:52.513Z,14.07
2019-06-07T04:44:52.473Z,14.08
2019-06-07T04:45:52.446Z,14.13
2019-06-07T04:46:52.447Z,14.16
2019-06-07T04:47:52.416Z,14.19
2019-06-07T04:48:52.468Z,14.20
2019-06-07T04:49:52.404Z,14.22
2019-06-07T04:50:52.515Z,14.23
2019-06-07T04:51:52.363Z,14.25
2019-06-07T04:52:52.351Z,14.28
2019-06-07T04:53:52.332Z,14.28
2019-06-07T04:54:52.333Z,14.30
2019-06-07T04:55:52.309Z,14.33
2019-06-07T04:56:52.361Z,14.34
2019-06-07T04:57:52.308Z,14.38
2019-06-07T04:58:52.264Z,14.40
2019-06-07T05:00:11.763Z,14.40
2019-06-07T05:00:59.128Z,14.40
2019-06-07T05:01:52.228Z,14.41
2019-06-07T05:02:52.244Z,14.43
2019-06-07T05:03:52.199Z,14.45
2019-06-07T05:04:52.198Z,14.45
2019-06-07T05:05:52.232Z,14.44
2019-06-07T05:06:52.165Z,14.45
2019-06-07T05:07:52.173Z,14.48
2019-06-07T05:08:52.162Z,14.49
2019-06-07T05:09:52.123Z,14.49
2019-06-07T05:10:52.137Z,14.51
2019-06-07T05:11:52.102Z,14.51
2019-06-07T05:12:52.156Z,14.53
2019-06-07T05:13:52.125Z,14.55
2019-06-07T05:14:52.050Z,14.58
2019-06-07T05:15:52.035Z,14.61
2019-06-07T05:16:52.027Z,14.62
2019-06-07T05:17:52.012Z,14.62
2019-06-07T05:18:52.046Z,14.63
2019-06-07T05:19:51.990Z,14.66
2019-06-07T05:20:51.972Z,14.68
2019-06-07T05:22:03.674Z,14.67
2019-06-07T05:22:51.950Z,14.68
2019-06-07T05:24:10.336Z,14.67
2019-06-07T05:24:51.977Z,14.66
2019-06-07T05:25:51.905Z,14.67
2019-06-07T05:26:51.879Z,14.67
2019-06-07T05:27:51.878Z,14.68
2019-06-07T05:28:52.011Z,14.70
2019-06-07T05:30:09.496Z,14.68
2019-06-07T05:31:04.007Z,14.62
2019-06-07T05:31:51.825Z,14.62
2019-06-07T05:32:51.836Z,14.62
2019-06-07T05:33:51.796Z,14.63
2019-06-07T05:34:51.786Z,14.63
2019-06-07T05:35:51.792Z,14.66
2019-06-07T05:37:10.513Z,14.67
2019-06-07T05:37:51.756Z,14.70
2019-06-07T05:38:51.745Z,14.71
2019-06-07T05:39:51.724Z,14.73
2019-06-07T05:40:51.725Z,14.79
2019-06-07T05:41:51.702Z,14.79
2019-06-07T05:42:51.684Z,14.82
2019-06-07T05:44:11.231Z,14.81
2019-06-07T05:44:51.648Z,14.85
2019-06-07T05:45:51.654Z,14.85
2019-06-07T05:46:51.633Z,14.86
2019-06-07T05:47:51.617Z,14.87
2019-06-07T05:48:51.602Z,14.89
2019-06-07T05:49:51.614Z,14.94
2019-06-07T05:50:57.001Z,14.94
2019-06-07T05:51:51.594Z,14.97
2019-06-07T05:52:51.596Z,14.99
2019-06-07T05:53:51.544Z,14.99
2019-06-07T05:54:51.516Z,15.02
2019-06-07T05:55:51.521Z,15.04
2019-06-07T05:56:51.530Z,15.05
2019-06-07T05:57:51.488Z,15.07
2019-06-07T05:58:51.499Z,15.10
2019-06-07T05:59:51.468Z,15.10
2019-06-07T06:00:51.527Z,15.12
2019-06-07T06:02:02.089Z,15.14
2019-06-07T06:03:04.080Z,15.15
2019-06-07T06:03:51.418Z,15.18
2019-06-07T06:04:51.402Z,15.22
2019-06-07T06:05:55.205Z,15.23
2019-06-07T06:06:51.428Z,15.27
2019-06-07T06:07:51.361Z,15.32
2019-06-07T06:08:51.342Z,15.35
2019-06-07T06:09:51.328Z,15.37
2019-06-07T06:10:51.312Z,15.39
2019-06-07T06:12:01.704Z,15.41
2019-06-07T06:12:52.071Z,15.41
2019-06-07T06:14:06.656Z,15.44
2019-06-07T06:14:51.273Z,15.44
2019-06-07T06:16:01.169Z,15.45
2019-06-07T06:16:51.375Z,15.50
2019-06-07T06:17:53.974Z,15.51
2019-06-07T06:18:51.209Z,15.54
2019-06-07T06:19:53.399Z,15.57
2019-06-07T06:21:17.900Z,15.60
2019-06-07T06:21:51.178Z,15.63
2019-06-07T06:22:51.319Z,15.63
2019-06-07T06:23:52.212Z,15.65
2019-06-07T06:25:30.030Z,15.65
2019-06-07T06:25:56.954Z,15.66
2019-06-07T06:26:55.190Z,15.67
2019-06-07T06:28:12.075Z,15.69
2019-06-07T06:28:51.108Z,15.70
2019-06-07T06:29:52.454Z,15.73
2019-06-07T06:30:51.059Z,15.75
2019-06-07T06:32:39.407Z,15.76
2019-06-07T06:32:57.792Z,15.76
2019-06-07T06:33:51.059Z,15.78
2019-06-07T06:34:53.890Z,15.80
2019-06-07T06:35:51.167Z,15.80
2019-06-07T06:36:50.981Z,15.78
2019-06-07T06:37:53.350Z,15.81
2019-06-07T06:38:51.526Z,15.83
2019-06-07T06:39:50.948Z,15.84
2019-06-07T06:41:11.516Z,15.87
2019-06-07T06:42:01.007Z,15.90
2019-06-07T06:42:50.914Z,15.90
2019-06-07T06:43:52.722Z,15.94
2019-06-07T06:44:54.049Z,15.98
2019-06-07T06:45:50.874Z,16.00
2019-06-07T06:46:57.539Z,16.02
2019-06-07T06:47:50.857Z,16.00
2019-06-07T06:48:54.731Z,16.05
2019-06-07T06:49:54.327Z,16.03
2019-06-07T06:50:52.678Z,16.05
2019-06-07T06:51:53.612Z,16.05
2019-06-07T06:52:54.433Z,16.06
2019-06-07T06:53:52.536Z,16.09
2019-06-07T06:54:59.357Z,16.13
2019-06-07T06:55:51.399Z,16.13
2019-06-07T06:56:52.800Z,16.21
2019-06-07T06:57:51.407Z,16.25
2019-06-07T06:59:33.077Z,16.26
2019-06-07T06:59:52.630Z,16.31
2019-06-07T07:01:04.796Z,16.32
2019-06-07T07:01:52.583Z,16.39
2019-06-07T07:03:39.305Z,16.43
2019-06-07T07:04:11.415Z,16.47
2019-06-07T07:04:53.394Z,16.49
2019-06-07T07:05:54.264Z,16.49
2019-06-07T07:06:53.088Z,16.51
2019-06-07T07:07:52.895Z,16.58
2019-06-07T07:08:51.419Z,16.61
2019-06-07T07:09:57.317Z,16.64
2019-06-07T07:10:53.189Z,16.62
2019-06-07T07:12:03.358Z,16.61
2019-06-07T07:12:52.419Z,16.65
2019-06-07T07:13:56.268Z,16.65
2019-06-07T07:14:55.158Z,16.69
2019-06-07T07:15:55.725Z,16.72
2019-06-07T07:16:54.579Z,16.76
2019-06-07T07:18:03.563Z,16.77
2019-06-07T07:18:52.927Z,16.80
2019-06-07T07:19:52.436Z,16.82
2019-06-07T07:20:53.472Z,16.82
2019-06-07T07:21:53.063Z,16.82
2019-06-07T07:22:56.401Z,16.83
2019-06-07T07:24:14.651Z,16.84
2019-06-07T07:24:53.360Z,16.84
2019-06-07T07:25:55.541Z,16.86
2019-06-07T07:26:52.832Z,16.87
2019-06-07T07:27:54.947Z,16.92
2019-06-07T07:28:51.830Z,16.97
2019-06-07T07:29:59.801Z,16.99
2019-06-07T07:30:54.834Z,17.02
2019-06-07T07:31:53.507Z,17.04
2019-06-07T07:32:52.858Z,17.09
2019-06-07T07:34:54.865Z,17.12
2019-06-07T07:36:13.915Z,17.10
2019-06-07T07:36:54.089Z,17.10
2019-06-07T07:37:57.025Z,17.16
2019-06-07T07:38:55.760Z,17.16
2019-06-07T07:39:54.107Z,17.19
2019-06-07T07:41:08.919Z,17.20
2019-06-07T07:42:13.701Z,17.23
2019-06-07T07:42:53.342Z,17.24
2019-06-07T07:43:59.493Z,17.28
2019-06-07T07:44:53.729Z,17.28
2019-06-07T07:45:54.690Z,17.31
2019-06-07T07:46:52.761Z,17.34
2019-06-07T07:48:10.593Z,17.38
2019-06-07T07:48:52.967Z,17.44
2019-06-07T07:49:53.019Z,17.50
2019-06-07T07:50:54.462Z,17.54
2019-06-07T07:51:55.049Z,17.60
2019-06-07T07:52:59.205Z,17.63
2019-06-07T07:54:04.282Z,17.65
2019-06-07T07:54:52.836Z,17.63
2019-06-07T07:55:53.826Z,17.60
2019-06-07T07:56:51.691Z,17.59
2019-06-07T07:57:58.145Z,17.54
2019-06-07T07:58:54.569Z,17.54
2019-06-07T08:00:09.485Z,17.56
2019-06-07T08:00:56.166Z,17.54
2019-06-07T08:01:53.071Z,17.53
2019-06-07T08:02:53.272Z,17.50
2019-06-07T08:03:50.709Z,17.49
2019-06-07T08:05:20.549Z,17.49
2019-06-07T08:05:52.012Z,17.49
2019-06-07T08:06:53.317Z,17.50
2019-06-07T08:07:53.503Z,17.53
2019-06-07T08:08:51.303Z,17.57
2019-06-07T08:09:51.430Z,17.65
2019-06-07T08:10:51.972Z,17.72
2019-06-07T08:11:52.097Z,17.79
2019-06-07T08:13:12.912Z,17.87
2019-06-07T08:13:50.598Z,17.93
2019-06-07T08:14:51.212Z,17.98
2019-06-07T08:15:53.346Z,18.05
2019-06-07T08:16:49.828Z,18.09
2019-06-07T08:17:51.583Z,18.11
2019-06-07T08:18:53.375Z,18.11
2019-06-07T08:19:51.601Z,18.09
2019-06-07T08:21:08.724Z,18.06
2019-06-07T08:21:50.646Z,18.03
2019-06-07T08:22:50.072Z,18.05
2019-06-07T08:23:51.616Z,18.09
2019-06-07T08:24:50.439Z,18.12
2019-06-07T08:25:51.876Z,18.13
2019-06-07T08:27:12.316Z,18.15
2019-06-07T08:27:51.854Z,18.12
2019-06-07T08:28:53.235Z,18.16
2019-06-07T08:30:08.976Z,18.16
2019-06-07T08:30:56.771Z,18.16
2019-06-07T08:31:52.902Z,18.16
2019-06-07T08:32:53.075Z,18.19
2019-06-07T08:33:50.206Z,18.18
2019-06-07T08:34:52.614Z,18.19
2019-06-07T08:36:19.369Z,18.24
2019-06-07T08:36:51.662Z,18.31
2019-06-07T08:38:21.531Z,18.37
2019-06-07T08:38:54.194Z,18.46
2019-06-07T08:39:50.413Z,18.51
2019-06-07T08:40:54.619Z,18.53
2019-06-07T08:42:14.363Z,18.55
2019-06-07T08:43:10.843Z,18.51
2019-06-07T08:46:08.236Z,18.48
2019-06-07T08:47:19.819Z,18.51
2019-06-07T08:48:26.675Z,18.55
2019-06-07T08:51:28.990Z,18.97
2019-06-07T08:52:28.956Z,19.07
2019-06-07T08:53:28.916Z,19.09
2019-06-07T08:54:29.099Z,19.11
2019-06-07T08:55:28.908Z,19.08
2019-06-07T08:56:28.875Z,19.07
2019-06-07T08:57:28.855Z,19.00
2019-06-07T08:58:29.125Z,18.96
2019-06-07T08:59:42.664Z,18.91
2019-06-07T09:00:45.682Z,18.98
2019-06-07T09:01:28.920Z,19.22
2019-06-07T09:02:28.811Z,19.62
2019-06-07T09:03:28.803Z,20.08
2019-06-07T09:04:28.803Z,20.21
2019-06-07T09:05:29.619Z,20.10
2019-06-07T09:07:01.841Z,19.96
2019-06-07T09:07:28.749Z,19.78
2019-06-07T09:08:30.826Z,19.59
2019-06-07T09:09:28.733Z,19.56
2019-06-07T09:10:28.727Z,19.59
2019-06-07T09:11:28.776Z,19.85
2019-06-07T09:12:28.706Z,20.32
2019-06-07T09:13:28.703Z,20.88
2019-06-07T09:14:28.694Z,21.41
2019-06-07T09:15:28.687Z,21.97
2019-06-07T09:16:28.669Z,22.16
2019-06-07T09:17:28.694Z,22.33
2019-06-07T09:18:41.865Z,22.47
2019-06-07T09:19:28.654Z,22.63
2019-06-07T09:20:37.079Z,22.88
2019-06-07T09:21:28.669Z,23.21
2019-06-07T09:22:28.717Z,23.64
2019-06-07T09:23:29.610Z,24.21
2019-06-07T09:24:28.635Z,24.66
2019-06-07T09:25:28.634Z,25.07
2019-06-07T09:26:28.626Z,25.18
2019-06-07T09:27:29.173Z,25.29
2019-06-07T09:28:28.617Z,25.48
2019-06-07T09:29:28.593Z,25.80
2019-06-07T09:30:28.582Z,26.30
2019-06-07T09:31:51.376Z,26.78
2019-06-07T09:32:28.618Z,27.03
2019-06-07T09:33:28.581Z,27.01
2019-06-07T09:34:29.103Z,26.93
2019-06-07T09:35:37.152Z,26.97
2019-06-07T09:36:28.642Z,26.85
2019-06-07T09:38:28.897Z,25.52
2019-06-07T09:39:33.492Z,24.63
2019-06-07T09:40:29.136Z,24.13
2019-06-07T09:41:46.812Z,23.86
2019-06-07T09:42:28.514Z,23.37
2019-06-07T09:44:00.761Z,22.98
2019-06-07T09:44:40.807Z,22.76
2019-06-07T09:45:28.607Z,22.86
2019-06-07T09:46:28.514Z,23.28
2019-06-07T09:47:43.365Z,23.73
2019-06-07T09:49:09.730Z,24.01
2019-06-07T09:49:32.559Z,24.14
2019-06-07T09:51:01.978Z,23.96
2019-06-07T09:51:28.859Z,23.64
2019-06-07T09:52:28.509Z,23.42
2019-06-07T09:53:28.515Z,23.37
2019-06-07T09:55:03.860Z,23.28
2019-06-07T09:55:28.441Z,23.29
2019-06-07T09:56:37.286Z,23.58
2019-06-07T09:57:41.673Z,23.82
2019-06-07T09:58:51.010Z,24.09
2019-06-07T09:59:28.625Z,24.53
2019-06-07T10:00:44.074Z,24.88
2019-06-07T10:01:29.227Z,25.19
2019-06-07T10:02:29.424Z,25.52
2019-06-07T10:03:29.256Z,25.88
2019-06-07T10:04:31.529Z,26.13
2019-06-07T10:05:29.263Z,26.46
2019-06-07T10:06:30.742Z,26.70
2019-06-07T10:07:31.643Z,26.78
2019-06-07T10:11:29.489Z,26.29
2019-06-07T10:12:29.222Z,26.19
2019-06-07T10:13:29.043Z,25.98
2019-06-07T10:14:28.677Z,25.91
2019-06-07T10:15:29.409Z,25.63
2019-06-07T10:16:32.957Z,25.37
2019-06-07T10:17:42.559Z,25.09
2019-06-07T10:18:28.969Z,24.71
2019-06-07T10:19:28.735Z,24.55
2019-06-07T10:20:28.322Z,24.58
2019-06-07T10:21:28.399Z,24.77
2019-06-07T10:22:28.310Z,25.00
2019-06-07T10:23:28.323Z,25.30
2019-06-07T10:24:28.338Z,25.48
2019-06-07T10:25:28.337Z,25.85
2019-06-07T10:26:28.819Z,26.27
2019-06-07T10:27:28.305Z,26.74
2019-06-07T10:28:28.300Z,27.07
2019-06-07T10:29:28.324Z,27.28
2019-06-07T10:30:28.337Z,27.66
2019-06-07T10:31:35.742Z,28.06
2019-06-07T10:32:28.362Z,28.46
2019-06-07T10:33:28.305Z,28.53
2019-06-07T10:34:28.301Z,28.67
2019-06-07T10:35:28.541Z,28.96
2019-06-07T10:36:28.310Z,29.24
2019-06-07T10:37:28.284Z,29.39
2019-06-07T10:38:28.281Z,29.55
2019-06-07T10:39:28.294Z,29.90
2019-06-07T10:40:28.315Z,30.23
2019-06-07T10:41:28.280Z,30.18
2019-06-07T10:42:28.368Z,30.16
2019-06-07T10:43:28.291Z,30.16
2019-06-07T10:44:28.291Z,30.20
2019-06-07T10:45:28.291Z,30.36
2019-06-07T10:46:28.294Z,30.38
2019-06-07T10:47:28.297Z,30.17
2019-06-07T10:48:28.288Z,30.05
2019-06-07T10:49:28.285Z,29.94
2019-06-07T10:50:28.293Z,29.73
2019-06-07T10:51:28.303Z,29.86
2019-06-07T10:52:28.290Z,29.99
2019-06-07T10:53:28.861Z,30.02
2019-06-07T10:54:30.682Z,30.35
2019-06-07T10:55:28.298Z,30.52
2019-06-07T10:56:28.308Z,30.56
2019-06-07T10:57:29.876Z,30.63
2019-06-07T10:58:28.324Z,30.49
2019-06-07T10:59:28.310Z,30.65
2019-06-07T11:00:28.349Z,30.89
2019-06-07T11:01:28.313Z,31.13
2019-06-07T11:02:28.325Z,31.15
2019-06-07T11:03:28.312Z,30.86
2019-06-07T11:04:28.614Z,30.61
2019-06-07T11:05:28.351Z,30.36
2019-06-07T11:06:28.333Z,29.89
2019-06-07T11:07:28.324Z,29.39
2019-06-07T11:08:28.410Z,28.97
2019-06-07T11:09:28.318Z,28.64
2019-06-07T11:10:28.317Z,28.13
2019-06-07T11:11:28.403Z,27.72
2019-06-07T11:12:28.327Z,27.66
2019-06-07T11:13:28.329Z,27.76
2019-06-07T11:14:28.339Z,27.19
2019-06-07T11:15:28.332Z,26.64
2019-06-07T11:16:28.319Z,26.31
2019-06-07T11:17:28.315Z,26.01
2019-06-07T11:18:28.331Z,25.86
2019-06-07T11:19:28.462Z,26.13
2019-06-07T11:20:28.327Z,26.61
2019-06-07T11:21:28.324Z,27.25
2019-06-07T11:22:28.312Z,27.98
2019-06-07T11:23:28.310Z,28.77
2019-06-07T11:24:28.313Z,29.46
2019-06-07T11:25:28.874Z,30.08
2019-06-07T11:26:28.366Z,30.35
2019-06-07T11:27:28.334Z,30.48
2019-06-07T11:28:28.313Z,30.59
2019-06-07T11:29:29.961Z,30.48
2019-06-07T11:30:28.971Z,30.80
2019-06-07T11:31:28.329Z,31.11
2019-06-07T11:32:28.434Z,31.45
2019-06-07T11:33:28.331Z,31.67
2019-06-07T11:34:28.316Z,31.36
2019-06-07T11:35:28.314Z,30.59
2019-06-07T11:36:28.332Z,29.96
2019-06-07T11:37:28.398Z,29.27
2019-06-07T11:38:28.361Z,29.16
2019-06-07T11:39:28.337Z,29.44
2019-06-07T11:40:35.701Z,29.40
2019-06-07T11:41:28.337Z,29.09
2019-06-07T11:42:28.326Z,29.06
2019-06-07T11:43:28.349Z,29.59
2019-06-07T11:44:28.331Z,29.96
2019-06-07T11:45:28.325Z,30.48
2019-06-07T11:46:28.341Z,31.17
2019-06-07T11:47:28.465Z,31.63
2019-06-07T11:48:28.327Z,32.12
2019-06-07T11:49:28.343Z,32.42
2019-06-07T11:50:28.333Z,32.53
2019-06-07T11:51:28.467Z,32.38
2019-06-07T11:52:28.336Z,31.90
2019-06-07T11:53:28.438Z,31.18
2019-06-07T11:54:28.348Z,30.61
2019-06-07T11:55:28.350Z,30.05
2019-06-07T11:56:28.339Z,29.64
2019-06-07T11:57:28.357Z,29.31
2019-06-07T11:58:28.405Z,29.13
2019-06-07T11:59:28.354Z,29.13
2019-06-07T12:00:28.451Z,28.97
2019-06-07T12:01:28.404Z,28.84
2019-06-07T12:02:28.492Z,28.74
2019-06-07T12:03:28.405Z,28.40
2019-06-07T12:04:34.293Z,28.15
2019-06-07T12:05:28.372Z,28.01
2019-06-07T12:06:28.598Z,28.00
2019-06-07T12:07:28.361Z,27.88
2019-06-07T12:08:28.426Z,27.63
2019-06-07T12:09:28.942Z,27.35
2019-06-07T12:10:41.826Z,27.08
2019-06-07T12:11:28.942Z,26.66
2019-06-07T12:12:28.344Z,26.44
2019-06-07T12:13:28.468Z,26.19
2019-06-07T12:14:28.482Z,26.07
2019-06-07T12:15:28.415Z,25.88
2019-06-07T12:16:28.356Z,25.71
2019-06-07T12:17:28.342Z,25.54
2019-06-07T12:18:28.326Z,25.39
2019-06-07T12:19:28.323Z,25.19
2019-06-07T12:20:28.353Z,25.11
2019-06-07T12:21:32.939Z,25.09
2019-06-07T12:22:28.319Z,25.03
2019-06-07T12:23:28.307Z,25.01
2019-06-07T12:24:28.334Z,24.93
2019-06-07T12:25:28.354Z,24.85
2019-06-07T12:26:28.304Z,24.84
2019-06-07T12:27:28.319Z,24.81
2019-06-07T12:28:28.302Z,24.81
2019-06-07T12:29:28.313Z,24.82
2019-06-07T12:30:28.393Z,24.92
2019-06-07T12:31:28.283Z,24.99
2019-06-07T12:32:28.333Z,25.04
2019-06-07T12:33:28.273Z,25.03
2019-06-07T12:34:28.298Z,25.00
2019-06-07T12:35:28.295Z,24.92
2019-06-07T12:36:28.302Z,24.85
2019-06-07T12:37:42.712Z,24.74
2019-06-07T12:38:28.254Z,24.69
2019-06-07T12:39:28.942Z,24.74
2019-06-07T12:40:32.236Z,24.68
2019-06-07T12:41:28.244Z,24.68
2019-06-07T12:42:28.243Z,24.68
2019-06-07T12:43:28.230Z,24.69
2019-06-07T12:44:28.248Z,24.69
2019-06-07T12:45:43.811Z,24.71
2019-06-07T12:46:28.978Z,24.69
2019-06-07T12:47:28.317Z,24.65
2019-06-07T12:48:28.214Z,24.61
2019-06-07T12:49:28.244Z,24.58
2019-06-07T12:50:41.919Z,24.58
2019-06-07T12:51:29.130Z,24.59
2019-06-07T12:52:28.272Z,24.58
2019-06-07T12:53:28.420Z,24.56
2019-06-07T12:54:28.198Z,24.53
2019-06-07T12:55:28.212Z,24.51
2019-06-07T12:56:29.098Z,24.51
2019-06-07T12:57:28.165Z,24.48
2019-06-07T12:58:33.870Z,24.50
2019-06-07T12:59:28.939Z,24.50
2019-06-07T13:00:28.341Z,24.51
2019-06-07T13:01:29.383Z,24.51
2019-06-07T13:02:28.141Z,24.50
2019-06-07T13:03:28.140Z,24.46
2019-06-07T13:04:28.137Z,24.47
2019-06-07T13:05:28.122Z,24.65
2019-06-07T13:06:28.110Z,24.86
2019-06-07T13:07:28.499Z,24.97